createdAt,value
2023-01-18T00:00:11.496Z,2.40
2023-01-18T00:02:58.496Z,2.40
2023-01-18T00:05:45.885Z,2.50
2023-01-18T00:08:33.983Z,2.70
2023-01-18T00:11:20.747Z,2.80
2023-01-18T00:14:07.041Z,2.80
2023-01-18T00:16:54.920Z,2.80
2023-01-18T00:19:41.489Z,2.50
2023-01-18T00:22:27.855Z,2.50
2023-01-18T00:25:14.353Z,2.60
2023-01-18T00:28:00.810Z,2.80
2023-01-18T00:30:47.441Z,2.90
2023-01-18T00:33:35.578Z,2.90
2023-01-18T00:36:22.263Z,3.00
2023-01-18T00:39:09.201Z,3.00
2023-01-18T00:42:13.257Z,3.00
2023-01-18T00:44:59.819Z,3.10
2023-01-18T00:47:46.375Z,3.20
2023-01-18T00:50:34.065Z,3.30
2023-01-18T00:53:21.025Z,3.40
2023-01-18T00:56:08.670Z,3.30
2023-01-18T00:58:55.390Z,3.30
2023-01-18T01:01:42.337Z,3.30
2023-01-18T01:04:46.505Z,3.20
2023-01-18T01:07:34.457Z,3.10
2023-01-18T01:10:20.965Z,3.10
2023-01-18T01:13:24.962Z,3.10
2023-01-18T01:16:29.683Z,3.10
2023-01-18T01:19:33.836Z,3.10
2023-01-18T01:22:37.721Z,3.20
2023-01-18T01:25:43.324Z,3.10
2023-01-18T01:28:29.882Z,3.10
2023-01-18T01:31:17.894Z,3.20
2023-01-18T01:34:04.556Z,3.30
2023-01-18T01:36:51.988Z,3.20
2023-01-18T01:39:38.653Z,3.30
2023-01-18T01:42:26.450Z,3.30
2023-01-18T01:45:12.966Z,3.30
2023-01-18T01:47:59.783Z,3.20
2023-01-18T01:50:46.540Z,3.20
2023-01-18T01:53:33.408Z,3.20
2023-01-18T01:56:21.849Z,3.20
2023-01-18T01:59:11.165Z,3.10
2023-01-18T02:01:58.877Z,3.20
2023-01-18T02:04:46.520Z,3.20
2023-01-18T02:07:34.281Z,3.20
2023-01-18T02:10:21.986Z,3.30
2023-01-18T02:13:11.069Z,3.30
2023-01-18T02:16:05.448Z,3.30
2023-01-18T02:18:59.874Z,3.30
2023-01-18T02:21:50.483Z,3.30
2023-01-18T02:25:06.183Z,3.30
2023-01-18T02:28:06.813Z,3.20
2023-01-18T02:31:01.561Z,3.20
2023-01-18T02:33:55.494Z,3.20
2023-01-18T02:36:45.543Z,3.30
2023-01-18T02:39:39.284Z,3.20
2023-01-18T02:42:46.417Z,3.30
2023-01-18T02:45:54.837Z,3.30
2023-01-18T02:48:43.404Z,3.30
2023-01-18T02:51:29.714Z,3.30
2023-01-18T02:54:24.075Z,3.30
2023-01-18T02:57:15.089Z,3.20
2023-01-18T03:00:03.618Z,3.30
2023-01-18T03:02:52.854Z,3.40
2023-01-18T03:05:42.994Z,3.40
2023-01-18T03:08:35.576Z,3.30
2023-01-18T03:11:30.144Z,3.20
2023-01-18T03:14:23.592Z,3.20
2023-01-18T03:17:17.112Z,3.20
2023-01-18T03:20:10.320Z,3.20
2023-01-18T03:23:20.156Z,3.20
2023-01-18T03:26:09.698Z,3.20
2023-01-18T03:29:16.487Z,3.10
2023-01-18T03:32:24.609Z,3.10
2023-01-18T03:35:17.252Z,3.10
2023-01-18T03:38:04.248Z,3.10
2023-01-18T03:40:50.843Z,3.20
2023-01-18T03:43:38.429Z,3.20
2023-01-18T03:46:27.957Z,3.20
2023-01-18T03:49:15.243Z,3.20
2023-01-18T03:52:15.408Z,3.20
2023-01-18T03:55:06.205Z,3.20
2023-01-18T03:57:56.969Z,3.10
2023-01-18T04:00:43.790Z,3.10
2023-01-18T04:03:31.146Z,3.10
2023-01-18T04:06:22.739Z,3.10
2023-01-18T04:09:11.854Z,3.00
2023-01-18T04:11:58.738Z,3.00
2023-01-18T04:14:45.112Z,2.90
2023-01-18T04:17:31.702Z,2.90
2023-01-18T04:20:18.535Z,2.80
2023-01-18T04:23:05.336Z,2.70
2023-01-18T04:25:53.456Z,2.70
2023-01-18T04:28:40.643Z,2.70
2023-01-18T04:31:27.428Z,2.60
2023-01-18T04:34:14.110Z,2.60
2023-01-18T04:37:01.913Z,2.60
2023-01-18T04:39:48.884Z,2.60
2023-01-18T04:42:36.672Z,2.60
2023-01-18T04:45:23.694Z,2.70
2023-01-18T04:48:10.062Z,2.70
2023-01-18T04:50:56.558Z,2.70
2023-01-18T04:53:43.889Z,2.60
2023-01-18T04:56:31.036Z,2.60
2023-01-18T04:59:19.050Z,2.50
2023-01-18T05:02:05.685Z,2.50
2023-01-18T05:04:52.096Z,2.50
2023-01-18T05:07:38.933Z,2.50
2023-01-18T05:10:25.387Z,2.40
2023-01-18T05:13:11.797Z,2.40
2023-01-18T05:16:00.164Z,2.50
2023-01-18T05:18:47.166Z,2.50
2023-01-18T05:21:33.522Z,2.50
2023-01-18T05:24:19.930Z,2.50
2023-01-18T05:27:06.532Z,2.50
2023-01-18T05:29:53.103Z,2.40
2023-01-18T05:32:41.204Z,2.40
2023-01-18T05:35:28.090Z,2.40
2023-01-18T05:38:14.688Z,2.40
2023-01-18T05:41:01.102Z,2.30
2023-01-18T05:43:48.011Z,2.30
2023-01-18T05:46:34.734Z,2.30
2023-01-18T05:49:22.960Z,2.20
2023-01-18T05:52:09.527Z,2.20
2023-01-18T05:54:55.901Z,2.20
2023-01-18T05:57:42.364Z,2.10
2023-01-18T06:00:28.936Z,2.10
2023-01-18T06:03:15.471Z,2.10
2023-01-18T06:06:03.318Z,2.20
2023-01-18T06:08:49.929Z,2.30
2023-01-18T06:11:36.468Z,2.20
2023-01-18T06:14:23.033Z,2.30
2023-01-18T06:17:09.607Z,2.30
2023-01-18T06:19:56.431Z,2.20
2023-01-18T06:22:45.594Z,2.20
2023-01-18T06:25:32.908Z,2.20
2023-01-18T06:28:20.992Z,2.20
2023-01-18T06:31:08.415Z,2.20
2023-01-18T06:33:54.832Z,2.30
2023-01-18T06:36:41.193Z,2.30
2023-01-18T06:39:29.042Z,2.30
2023-01-18T06:42:15.693Z,2.30
2023-01-18T06:45:02.597Z,2.20
2023-01-18T06:47:48.972Z,2.20
2023-01-18T06:50:35.624Z,2.20
2023-01-18T06:53:23.103Z,2.20
2023-01-18T06:56:11.782Z,2.20
2023-01-18T06:58:58.895Z,2.20
2023-01-18T07:01:45.426Z,2.30
2023-01-18T07:04:35.453Z,2.30
2023-01-18T07:07:22.402Z,2.30
2023-01-18T07:10:10.623Z,2.30
2023-01-18T07:12:59.674Z,2.40
2023-01-18T07:15:46.880Z,2.40
2023-01-18T07:18:33.246Z,2.40
2023-01-18T07:21:22.937Z,2.40
2023-01-18T07:24:09.893Z,2.30
2023-01-18T07:26:56.408Z,2.20
2023-01-18T07:29:44.482Z,2.10
2023-01-18T07:32:31.213Z,2.10
2023-01-18T07:35:18.268Z,2.10
2023-01-18T07:38:04.865Z,2.10
2023-01-18T07:40:51.847Z,2.20
2023-01-18T07:43:39.113Z,2.30
2023-01-18T07:46:27.033Z,2.30
2023-01-18T07:49:13.789Z,2.40
2023-01-18T07:52:00.161Z,2.30
2023-01-18T07:54:46.603Z,2.30
2023-01-18T07:57:33.306Z,2.30
2023-01-18T08:00:21.166Z,2.30
2023-01-18T08:03:09.938Z,2.40
2023-01-18T08:06:00.032Z,2.50
2023-01-18T08:08:46.811Z,2.60
2023-01-18T08:11:33.721Z,2.60
2023-01-18T08:14:20.822Z,2.60
2023-01-18T08:17:07.991Z,2.60
2023-01-18T08:19:55.873Z,2.60
2023-01-18T08:22:42.185Z,2.70
2023-01-18T08:25:31.596Z,2.60
2023-01-18T08:28:18.790Z,2.60
2023-01-18T08:31:08.550Z,2.60
2023-01-18T08:33:55.640Z,2.70
2023-01-18T08:36:43.475Z,2.70
2023-01-18T08:39:30.024Z,2.70
2023-01-18T08:42:16.538Z,2.80
2023-01-18T08:45:03.466Z,2.90
2023-01-18T08:47:58.345Z,2.80
2023-01-18T08:50:46.383Z,2.90
2023-01-18T08:53:34.608Z,2.90
2023-01-18T08:56:21.966Z,3.10
2023-01-18T08:59:09.686Z,3.10
2023-01-18T09:01:56.278Z,3.10
2023-01-18T09:04:47.402Z,3.10
2023-01-18T09:07:34.059Z,3.20
2023-01-18T09:10:22.592Z,3.40
2023-01-18T09:13:10.871Z,3.40
2023-01-18T09:16:01.657Z,3.40
2023-01-18T09:18:49.658Z,3.40
2023-01-18T09:21:36.748Z,3.30
2023-01-18T09:24:23.075Z,3.20
2023-01-18T09:27:11.714Z,3.30
2023-01-18T09:29:58.097Z,3.30
2023-01-18T09:32:44.434Z,3.30
2023-01-18T09:35:31.074Z,3.30
2023-01-18T09:38:18.012Z,3.20
2023-01-18T09:41:07.136Z,3.20
2023-01-18T09:43:58.255Z,3.30
2023-01-18T09:46:45.319Z,3.30
2023-01-18T09:49:38.022Z,3.30
2023-01-18T09:52:35.381Z,3.40
2023-01-18T09:55:28.634Z,3.40
2023-01-18T09:58:35.771Z,3.30
2023-01-18T10:01:28.917Z,3.30
2023-01-18T10:04:19.242Z,3.30
2023-01-18T10:07:10.345Z,3.30
2023-01-18T10:09:59.807Z,3.40
2023-01-18T10:12:50.844Z,3.50
2023-01-18T10:15:38.933Z,3.60
2023-01-18T10:18:27.019Z,3.60
2023-01-18T10:21:22.196Z,3.70
2023-01-18T10:24:28.819Z,3.80
2023-01-18T10:27:48.611Z,3.90
2023-01-18T10:30:58.055Z,4.00
2023-01-18T10:33:46.786Z,3.90
2023-01-18T10:36:39.195Z,3.80
2023-01-18T10:39:32.486Z,3.90
2023-01-18T10:42:21.836Z,3.90
2023-01-18T10:45:17.374Z,4.00
2023-01-18T10:48:24.173Z,3.90
2023-01-18T10:51:26.124Z,4.00
2023-01-18T10:54:24.294Z,4.00
2023-01-18T10:57:22.426Z,4.00
2023-01-18T11:00:21.413Z,4.20
2023-01-18T11:03:14.457Z,4.00
2023-01-18T11:06:06.098Z,4.10
2023-01-18T11:08:55.317Z,4.10
2023-01-18T11:11:59.312Z,4.10
2023-01-18T11:14:45.789Z,4.20
2023-01-18T11:17:33.659Z,4.20
2023-01-18T11:20:23.177Z,4.30
2023-01-18T11:23:18.416Z,4.30
2023-01-18T11:26:13.741Z,4.40
2023-01-18T11:29:02.375Z,4.50
2023-01-18T11:31:51.080Z,4.60
2023-01-18T11:34:39.269Z,4.70
2023-01-18T11:37:32.013Z,4.70
2023-01-18T11:40:27.854Z,4.80
2023-01-18T11:43:22.387Z,4.70
2023-01-18T11:46:29.810Z,4.80
2023-01-18T11:49:25.586Z,5.00
2023-01-18T11:52:18.656Z,4.90
2023-01-18T11:55:18.817Z,5.10
2023-01-18T11:58:24.468Z,5.20
2023-01-18T12:01:26.790Z,5.20
2023-01-18T12:04:19.700Z,5.10
2023-01-18T12:07:17.672Z,5.20
2023-01-18T12:10:08.588Z,5.20
2023-01-18T12:13:07.546Z,5.20
2023-01-18T12:16:05.525Z,5.10
2023-01-18T12:19:24.220Z,5.10
2023-01-18T12:22:35.998Z,5.00
2023-01-18T12:25:42.075Z,5.20
2023-01-18T12:28:38.677Z,5.30
2023-01-18T12:31:41.347Z,5.20
2023-01-18T12:34:36.368Z,5.20
2023-01-18T12:37:35.133Z,5.20
2023-01-18T12:40:33.141Z,5.20
2023-01-18T12:43:37.795Z,5.10
2023-01-18T12:46:32.441Z,5.10
2023-01-18T12:49:21.904Z,5.20
2023-01-18T12:52:18.434Z,5.20
2023-01-18T12:55:08.185Z,5.30
2023-01-18T12:57:58.736Z,5.40
2023-01-18T13:00:50.133Z,5.30
2023-01-18T13:03:42.338Z,5.20
2023-01-18T13:06:30.411Z,5.30
2023-01-18T13:09:21.020Z,5.30
2023-01-18T13:12:08.255Z,5.20
2023-01-18T13:15:01.573Z,5.10
2023-01-18T13:17:57.270Z,5.10
2023-01-18T13:21:03.345Z,5.00
2023-01-18T13:24:01.974Z,4.90
2023-01-18T13:26:48.884Z,5.00
2023-01-18T13:29:35.645Z,4.90
2023-01-18T13:32:30.253Z,4.90
2023-01-18T13:35:22.084Z,4.90
2023-01-18T13:38:14.543Z,4.90
2023-01-18T13:41:03.823Z,4.90
2023-01-18T13:44:06.867Z,4.80
2023-01-18T13:46:58.054Z,4.80
2023-01-18T13:49:47.726Z,4.90
2023-01-18T13:52:35.778Z,5.00
2023-01-18T13:55:31.179Z,5.10
2023-01-18T13:58:19.916Z,5.10
2023-01-18T14:01:08.845Z,5.10
2023-01-18T14:03:56.095Z,5.10
2023-01-18T14:06:45.608Z,5.00
2023-01-18T14:09:40.611Z,5.00
2023-01-18T14:12:51.391Z,5.00
2023-01-18T14:15:49.889Z,4.90
2023-01-18T14:18:36.499Z,5.00
2023-01-18T14:21:29.063Z,5.00
2023-01-18T14:24:34.078Z,5.00
2023-01-18T14:27:24.853Z,4.90
2023-01-18T14:30:27.217Z,4.80
2023-01-18T14:33:18.367Z,4.80
2023-01-18T14:36:06.589Z,4.70
2023-01-18T14:39:13.648Z,4.60
2023-01-18T14:42:02.843Z,4.50
2023-01-18T14:44:58.362Z,4.40
2023-01-18T14:47:48.089Z,4.40
2023-01-18T14:50:39.511Z,4.40
2023-01-18T14:53:29.032Z,4.30
2023-01-18T14:56:20.293Z,4.30
2023-01-18T14:59:20.617Z,4.40
2023-01-18T15:02:17.386Z,4.40
2023-01-18T15:05:17.531Z,4.40
2023-01-18T15:08:04.270Z,4.50
2023-01-18T15:10:51.414Z,4.50
2023-01-18T15:13:47.495Z,4.50
2023-01-18T15:16:35.390Z,4.60
2023-01-18T15:19:24.965Z,4.60
2023-01-18T15:22:15.406Z,4.50
2023-01-18T15:25:02.113Z,4.40
2023-01-18T15:27:52.241Z,4.50
2023-01-18T15:30:39.028Z,4.40
2023-01-18T15:33:28.006Z,4.20
2023-01-18T15:36:15.191Z,4.20
2023-01-18T15:39:04.224Z,4.10
2023-01-18T15:41:51.849Z,4.10
2023-01-18T15:44:44.127Z,4.00
2023-01-18T15:47:36.626Z,3.90
2023-01-18T15:50:25.434Z,3.90
2023-01-18T15:53:18.964Z,3.80
2023-01-18T15:56:09.416Z,3.70
2023-01-18T15:58:57.937Z,3.70
2023-01-18T16:01:48.776Z,3.60
2023-01-18T16:04:36.078Z,3.50
2023-01-18T16:07:42.445Z,3.40
2023-01-18T16:10:30.369Z,3.50
2023-01-18T16:13:36.549Z,3.40
2023-01-18T16:16:24.084Z,3.40
2023-01-18T16:19:20.601Z,3.30
2023-01-18T16:22:08.866Z,3.30
2023-01-18T16:24:58.602Z,3.20
2023-01-18T16:27:49.819Z,3.30
2023-01-18T16:30:40.728Z,3.20
2023-01-18T16:33:27.276Z,3.20
2023-01-18T16:36:18.175Z,3.20
2023-01-18T16:39:05.183Z,3.20
2023-01-18T16:41:55.349Z,3.10
2023-01-18T16:44:44.284Z,3.10
2023-01-18T16:47:32.061Z,3.10
2023-01-18T16:50:19.012Z,3.10
2023-01-18T16:53:05.497Z,3.10
2023-01-18T16:55:52.140Z,3.10
2023-01-18T16:58:39.105Z,3.10
2023-01-18T17:01:25.526Z,3.10
2023-01-18T17:04:13.558Z,3.00
2023-01-18T17:06:59.945Z,3.00
2023-01-18T17:09:49.346Z,3.00
2023-01-18T17:12:36.177Z,2.90
2023-01-18T17:15:23.259Z,2.80
2023-01-18T17:18:15.380Z,2.80
2023-01-18T17:21:03.025Z,2.70
2023-01-18T17:23:49.332Z,2.60
2023-01-18T17:26:36.013Z,2.60
2023-01-18T17:29:22.587Z,2.60
2023-01-18T17:32:13.009Z,2.70
2023-01-18T17:34:59.901Z,2.60
2023-01-18T17:37:47.824Z,2.50
2023-01-18T17:40:40.863Z,2.20
2023-01-18T17:43:33.954Z,2.00
2023-01-18T17:46:21.159Z,1.80
2023-01-18T17:49:07.919Z,1.80
2023-01-18T17:51:54.129Z,1.80
2023-01-18T17:54:41.893Z,1.80
2023-01-18T17:57:28.721Z,1.70
2023-01-18T18:00:16.445Z,1.70
2023-01-18T18:03:02.926Z,1.80
2023-01-18T18:05:50.677Z,1.90
2023-01-18T18:08:38.092Z,2.00
2023-01-18T18:11:26.221Z,2.00
2023-01-18T18:14:12.764Z,2.20
2023-01-18T18:16:59.253Z,2.20
2023-01-18T18:19:45.634Z,2.30
2023-01-18T18:22:32.277Z,2.30
2023-01-18T18:25:19.248Z,2.20
2023-01-18T18:28:08.313Z,2.10
2023-01-18T18:30:56.599Z,2.00
2023-01-18T18:33:43.673Z,1.90
2023-01-18T18:36:30.466Z,2.00
2023-01-18T18:39:17.016Z,1.90
2023-01-18T18:42:03.566Z,1.90
2023-01-18T18:44:51.880Z,1.80
2023-01-18T18:47:38.795Z,1.70
2023-01-18T18:50:25.555Z,1.70
2023-01-18T18:53:12.370Z,1.60
2023-01-18T18:55:59.981Z,1.70
2023-01-18T18:58:48.620Z,1.70
2023-01-18T19:01:36.533Z,1.60
2023-01-18T19:04:23.303Z,1.40
2023-01-18T19:07:09.670Z,1.40
2023-01-18T19:09:56.609Z,1.50
2023-01-18T19:12:43.270Z,1.40
2023-01-18T19:15:30.062Z,1.50
2023-01-18T19:18:18.105Z,1.60
2023-01-18T19:21:05.496Z,1.60
2023-01-18T19:23:51.844Z,1.50
2023-01-18T19:26:38.440Z,1.50
2023-01-18T19:29:24.913Z,1.60
2023-01-18T19:32:11.726Z,1.50
2023-01-18T19:34:59.816Z,1.50
2023-01-18T19:37:46.449Z,1.30
2023-01-18T19:40:33.519Z,1.30
2023-01-18T19:43:19.911Z,1.20
2023-01-18T19:46:07.296Z,1.20
2023-01-18T19:48:57.554Z,1.20
2023-01-18T19:51:46.932Z,1.30
2023-01-18T19:54:33.592Z,1.40
2023-01-18T19:57:19.987Z,1.40
2023-01-18T20:00:08.024Z,1.40
2023-01-18T20:03:01.150Z,1.60
2023-01-18T20:05:48.109Z,1.40
2023-01-18T20:08:36.236Z,1.40
2023-01-18T20:11:22.763Z,1.50
2023-01-18T20:14:10.100Z,1.50
2023-01-18T20:16:57.489Z,1.50
2023-01-18T20:19:45.400Z,1.50
2023-01-18T20:22:33.084Z,1.50
2023-01-18T20:25:21.230Z,1.70
2023-01-18T20:28:07.975Z,1.70
2023-01-18T20:30:54.821Z,1.80
2023-01-18T20:33:42.733Z,1.80
2023-01-18T20:36:29.737Z,1.70
2023-01-18T20:39:16.491Z,1.70
2023-01-18T20:42:04.437Z,1.80
2023-01-18T20:44:53.592Z,1.80
2023-01-18T20:47:40.197Z,1.90
2023-01-18T20:50:26.664Z,1.90
2023-01-18T20:53:13.202Z,2.00
2023-01-18T20:56:02.868Z,2.00
2023-01-18T20:58:50.509Z,1.90
2023-01-18T21:01:37.261Z,1.90
2023-01-18T21:04:24.289Z,1.90
2023-01-18T21:07:11.169Z,1.90
2023-01-18T21:09:57.540Z,1.90
2023-01-18T21:12:43.953Z,1.90
2023-01-18T21:15:31.635Z,1.90
2023-01-18T21:18:17.913Z,1.90
2023-01-18T21:21:04.761Z,1.90
2023-01-18T21:23:51.528Z,2.00
2023-01-18T21:26:37.996Z,1.90
2023-01-18T21:29:24.998Z,2.00
2023-01-18T21:32:12.765Z,2.00
2023-01-18T21:34:59.419Z,1.90
2023-01-18T21:37:46.337Z,1.90
2023-01-18T21:40:33.207Z,1.80
2023-01-18T21:43:38.374Z,1.60
2023-01-18T21:46:25.108Z,1.50
2023-01-18T21:49:51.891Z,1.30
2023-01-18T21:52:57.424Z,1.30
2023-01-18T21:55:45.317Z,1.20
2023-01-18T21:58:49.133Z,1.40
2023-01-18T22:01:39.028Z,1.30
2023-01-18T22:04:44.340Z,1.40
2023-01-18T22:07:33.915Z,1.30
2023-01-18T22:10:20.677Z,1.30
2023-01-18T22:13:07.050Z,1.30
2023-01-18T22:15:53.493Z,1.30
2023-01-18T22:18:39.884Z,1.30
2023-01-18T22:21:28.961Z,1.30
2023-01-18T22:24:16.900Z,1.20
2023-01-18T22:27:04.575Z,1.30
2023-01-18T22:29:51.701Z,1.50
2023-01-18T22:32:38.737Z,1.50
2023-01-18T22:35:25.715Z,1.50
2023-01-18T22:38:13.594Z,1.50
2023-01-18T22:41:04.067Z,1.50
2023-01-18T22:43:50.981Z,1.60
2023-01-18T22:46:37.606Z,1.60
2023-01-18T22:49:23.946Z,1.70
2023-01-18T22:52:10.272Z,1.70
2023-01-18T22:54:58.104Z,1.70
2023-01-18T22:57:44.813Z,1.70
2023-01-18T23:00:31.966Z,1.60
2023-01-18T23:03:18.704Z,1.60
2023-01-18T23:06:05.623Z,1.70
2023-01-18T23:08:54.275Z,1.70
2023-01-18T23:11:42.410Z,1.80
2023-01-18T23:14:46.663Z,1.80
2023-01-18T23:17:43.283Z,1.70
2023-01-18T23:20:30.189Z,1.70
2023-01-18T23:23:17.010Z,1.70
2023-01-18T23:26:03.863Z,1.70
2023-01-18T23:28:52.020Z,1.70
2023-01-18T23:31:38.711Z,1.70
2023-01-18T23:34:25.147Z,1.70
2023-01-18T23:37:11.527Z,1.70
2023-01-18T23:40:15.576Z,1.80
2023-01-18T23:43:19.558Z,1.70
2023-01-18T23:46:24.808Z,1.80
2023-01-18T23:49:28.934Z,1.80
2023-01-18T23:52:33.003Z,1.80
2023-01-18T23:55:19.916Z,1.70
2023-01-18T23:58:06.708Z,1.80
